createdAt,value
2023-02-13T00:01:10.960Z,101387.31
2023-02-13T00:03:37.393Z,101384.63
2023-02-13T00:06:04.046Z,101385.53
2023-02-13T00:08:30.457Z,101382.00
2023-02-13T00:10:57.392Z,101381.13
2023-02-13T00:13:23.968Z,101379.38
2023-02-13T00:16:00.528Z,101375.78
2023-02-13T00:18:27.698Z,101374.00
2023-02-13T00:21:04.485Z,101369.59
2023-02-13T00:23:31.658Z,101373.16
2023-02-13T00:25:58.613Z,101374.03
2023-02-13T00:28:25.301Z,101370.50
2023-02-13T00:30:51.858Z,101366.97
2023-02-13T00:33:18.331Z,101365.19
2023-02-13T00:35:44.690Z,101365.19
2023-02-13T00:38:11.152Z,101373.22
2023-02-13T00:40:37.600Z,101373.22
2023-02-13T00:43:04.078Z,101368.75
2023-02-13T00:45:30.465Z,101370.56
2023-02-13T00:47:56.800Z,101378.59
2023-02-13T00:50:23.265Z,101371.47
2023-02-13T00:52:49.627Z,101382.13
2023-02-13T00:55:16.065Z,101372.34
2023-02-13T00:57:42.495Z,101372.34
2023-02-13T01:00:09.213Z,101371.47
2023-02-13T01:02:36.250Z,101371.47
2023-02-13T01:05:02.985Z,101370.56
2023-02-13T01:07:29.421Z,101375.00
2023-02-13T01:09:55.827Z,101367.94
2023-02-13T01:12:22.258Z,101371.47
2023-02-13T01:14:48.920Z,101377.66
2023-02-13T01:17:16.124Z,101375.94
2023-02-13T01:19:42.561Z,101372.38
2023-02-13T01:22:09.111Z,101372.38
2023-02-13T01:24:35.502Z,101362.63
2023-02-13T01:27:02.531Z,101372.38
2023-02-13T01:29:29.286Z,101368.84
2023-02-13T01:31:55.805Z,101359.97
2023-02-13T01:34:22.365Z,101359.97
2023-02-13T01:36:48.746Z,101356.38
2023-02-13T01:39:15.193Z,101360.81
2023-02-13T01:41:41.621Z,101354.56
2023-02-13T01:44:26.976Z,101350.16
2023-02-13T01:46:53.453Z,101351.94
2023-02-13T01:49:23.561Z,101356.34
2023-02-13T01:51:51.442Z,101354.59
2023-02-13T01:54:22.700Z,101351.03
2023-02-13T01:56:55.003Z,101351.06
2023-02-13T01:59:25.846Z,101357.25
2023-02-13T02:01:53.749Z,101355.50
2023-02-13T02:04:22.687Z,101355.47
2023-02-13T02:06:51.274Z,101357.22
2023-02-13T02:09:20.889Z,101356.34
2023-02-13T02:11:57.379Z,101348.34
2023-02-13T02:14:23.800Z,101347.47
2023-02-13T02:16:50.245Z,101345.69
2023-02-13T02:19:31.871Z,101343.91
2023-02-13T02:22:16.989Z,101343.03
2023-02-13T02:24:52.637Z,101344.81
2023-02-13T02:27:38.022Z,101343.94
2023-02-13T02:30:16.713Z,101348.34
2023-02-13T02:32:46.273Z,101341.19
2023-02-13T02:35:21.404Z,101343.03
2023-02-13T02:37:53.959Z,101346.56
2023-02-13T02:40:23.468Z,101348.34
2023-02-13T02:42:58.942Z,101343.94
2023-02-13T02:45:28.828Z,101340.38
2023-02-13T02:48:29.589Z,101338.56
2023-02-13T02:51:19.041Z,101343.91
2023-02-13T02:53:51.876Z,101350.09
2023-02-13T02:56:27.547Z,101345.66
2023-02-13T02:59:15.617Z,101347.44
2023-02-13T03:02:05.094Z,101348.34
2023-02-13T03:04:57.005Z,101353.66
2023-02-13T03:07:23.441Z,101352.72
2023-02-13T03:10:10.882Z,101357.19
2023-02-13T03:13:22.286Z,101356.31
2023-02-13T03:16:10.317Z,101358.09
2023-02-13T03:19:01.827Z,101358.09
2023-02-13T03:22:06.025Z,101359.88
2023-02-13T03:24:32.403Z,101358.06
2023-02-13T03:27:07.996Z,101361.63
2023-02-13T03:30:04.282Z,101360.75
2023-02-13T03:32:30.716Z,101360.69
2023-02-13T03:35:28.141Z,101358.06
2023-02-13T03:37:57.691Z,101355.41
2023-02-13T03:40:29.202Z,101358.06
2023-02-13T03:43:01.658Z,101356.28
2023-02-13T03:45:49.205Z,101359.84
2023-02-13T03:48:36.208Z,101355.44
2023-02-13T03:51:03.342Z,101358.94
2023-02-13T03:53:33.257Z,101367.84
2023-02-13T03:56:19.319Z,101357.16
